Time;durP1;ratioP1;P1;durP2;ratioP2;P2;SDS_P1;SDS_P2;PMS_P1;PMS_P2;Temp;Humidity;BMP_temperature;BMP_pressure;BME280_temperature;BME280_humidity;BME280_pressure;Samples;Min_cycle;Max_cycle;Signal;HPM_P1;HPM_P2
2022/08/16 00:00:05;;;;;;;6.62;4.10;;;;;;;23.06;59.28;99494.12;1798788;79;21494;-67
2022/08/16 00:02:36;;;;;;;8.00;3.80;;;;;;;23.12;59.91;99499.08;1811817;79;21548;-68
2022/08/16 00:05:08;;;;;;;7.17;3.75;;;;;;;23.14;59.28;99496.80;1798250;79;21458;-69
2022/08/16 00:07:39;;;;;;;8.33;4.10;;;;;;;23.18;58.85;99501.48;1805839;79;21591;-69
2022/08/16 00:10:10;;;;;;;5.28;3.75;;;;;;;23.21;59.44;99504.25;1808035;79;21403;-69
2022/08/16 00:12:42;;;;;;;7.78;4.15;;;;;;;23.23;59.06;99511.76;1797882;79;21459;-69
2022/08/16 00:15:32;;;;;;;5.58;3.60;;;;;;;23.25;58.82;99522.91;1784780;80;21096;-69
2022/08/16 00:18:04;;;;;;;8.15;4.08;;;;;;;23.29;57.16;99521.16;1811762;77;21035;-68
2022/08/16 00:20:35;;;;;;;8.08;3.58;;;;;;;23.37;57.43;99514.05;1806948;78;21046;-69
2022/08/16 00:23:06;;;;;;;10.50;3.55;;;;;;;23.40;57.09;99512.05;1798042;79;21006;-67
2022/08/16 00:25:38;;;;;;;8.30;3.85;;;;;;;23.43;56.64;99521.25;1807693;79;21038;-71
2022/08/16 00:28:09;;;;;;;6.90;3.55;;;;;;;23.45;56.45;99513.39;1815624;79;21015;-70
2022/08/16 00:30:40;;;;;;;7.53;3.58;;;;;;;23.46;56.64;99529.03;1806618;78;21024;-69
2022/08/16 00:33:10;;;;;;;8.98;3.42;;;;;;;23.47;56.19;99533.49;1782277;80;21083;-68
2022/08/16 00:35:40;;;;;;;6.97;3.62;;;;;;;23.50;55.76;99535.68;1780109;80;21092;-69
2022/08/16 00:38:08;;;;;;;6.15;3.50;;;;;;;23.52;56.00;99541.80;1781953;80;21516;-71
2022/08/16 00:40:49;;;;;;;6.58;3.65;;;;;;;23.55;55.39;99541.22;1778714;80;21025;-68
2022/08/16 00:43:33;;;;;;;7.40;3.30;;;;;;;23.57;55.75;99540.35;1771131;81;21059;-69
2022/08/16 00:46:23;;;;;;;10.55;3.52;;;;;;;23.62;54.99;99540.27;1777659;80;21089;-69
2022/08/16 00:48:54;;;;;;;4.17;3.17;;;;;;;23.74;54.80;99528.59;1778020;80;21014;-67
2022/08/16 00:51:26;;;;;;;9.60;3.58;;;;;;;23.84;56.17;99530.39;1779843;80;21466;-68
2022/08/16 00:53:57;;;;;;;10.63;4.00;;;;;;;23.87;55.44;99532.00;1778525;80;21058;-67
2022/08/16 00:56:31;;;;;;;9.83;4.00;;;;;;;23.89;55.14;99541.49;1779939;80;21014;-66
2022/08/16 00:59:02;;;;;;;6.95;3.80;;;;;;;23.91;55.60;99535.02;1776488;80;21034;-66
2022/08/16 01:01:32;;;;;;;8.13;3.83;;;;;;;23.89;55.82;99530.30;1778827;80;21018;-66
2022/08/16 01:04:04;;;;;;;7.35;3.87;;;;;;;23.88;55.94;99528.64;1778625;80;21017;-68
2022/08/16 01:06:33;;;;;;;10.70;3.98;;;;;;;23.87;55.13;99533.97;1771856;80;21010;-66
2022/08/16 01:09:05;;;;;;;8.55;3.47;;;;;;;23.92;54.86;99540.88;1753075;80;21022;-67
2022/08/16 01:11:37;;;;;;;7.42;3.72;;;;;;;23.94;55.42;99542.80;1779142;80;21054;-66
2022/08/16 01:14:14;;;;;;;4.90;3.77;;;;;;;23.93;56.15;99550.94;1775900;80;21034;-66
2022/08/16 01:16:46;;;;;;;6.95;3.72;;;;;;;23.90;55.99;99558.54;1782347;80;20990;-66
2022/08/16 01:19:34;;;;;;;9.30;3.72;;;;;;;23.88;55.99;99563.61;1779778;80;21004;-65
2022/08/16 01:22:26;;;;;;;7.03;3.47;;;;;;;23.87;56.73;99546.56;1775646;80;21016;-65
2022/08/16 01:25:08;;;;;;;8.45;4.33;;;;;;;23.80;57.62;99544.73;1738396;80;21026;-65
2022/08/16 01:27:49;;;;;;;7.97;3.92;;;;;;;23.75;59.59;99557.41;1784948;80;21000;-64
2022/08/16 01:30:31;;;;;;;7.80;4.00;;;;;;;23.65;60.51;99550.84;1784624;79;21032;-66
2022/08/16 01:33:04;;;;;;;7.53;4.10;;;;;;;23.55;62.04;99545.42;1795027;79;20976;-64
2022/08/16 01:35:58;;;;;;;11.63;4.37;;;;;;;23.44;63.64;99557.03;1792060;79;21067;-66
2022/08/16 01:38:32;;;;;;;9.70;4.53;;;;;;;23.33;65.13;99563.31;1789346;80;21436;-65
2022/08/16 01:41:12;;;;;;;9.35;4.50;;;;;;;23.22;66.10;99552.02;1798033;79;21066;-66
2022/08/16 01:43:45;;;;;;;8.68;4.62;;;;;;;23.07;67.17;99556.70;1766605;80;21031;-67
2022/08/16 01:46:30;;;;;;;9.88;4.47;;;;;;;22.97;68.51;99561.03;1796365;79;21023;-65
2022/08/16 01:49:11;;;;;;;7.97;4.15;;;;;;;22.79;69.74;99553.42;1798245;79;21051;-66
2022/08/16 01:51:43;;;;;;;8.48;4.42;;;;;;;22.63;71.42;99550.52;1783263;80;21015;-67
2022/08/16 01:54:13;;;;;;;9.60;5.35;;;;;;;22.46;72.91;99546.25;1790624;80;21063;-66
2022/08/16 01:56:49;;;;;;;7.33;4.62;;;;;;;22.30;74.48;99545.33;1789888;80;21011;-65
2022/08/16 01:59:21;;;;;;;12.35;4.65;;;;;;;22.19;75.37;99539.02;1800601;79;21099;-65
2022/08/16 02:01:51;;;;;;;8.83;4.50;;;;;;;22.13;75.89;99529.88;1765173;80;21496;-65
2022/08/16 02:04:24;;;;;;;10.10;4.40;;;;;;;22.08;76.61;99526.28;1796855;80;21473;-67
2022/08/16 02:06:56;;;;;;;9.13;4.83;;;;;;;22.05;77.04;99526.30;1786964;80;21044;-66
2022/08/16 02:09:26;;;;;;;9.70;4.42;;;;;;;21.98;77.50;99513.80;1786170;80;20999;-66
2022/08/16 02:11:59;;;;;;;10.55;4.08;;;;;;;21.94;77.67;99517.73;1787246;79;21011;-67
2022/08/16 02:14:31;;;;;;;10.32;4.30;;;;;;;21.97;75.31;99519.11;1779646;80;21050;-65
2022/08/16 02:17:02;;;;;;;7.28;4.47;;;;;;;22.00;75.08;99512.38;1787604;80;21040;-69
2022/08/16 02:19:34;;;;;;;7.97;4.80;;;;;;;22.01;73.92;99509.86;1797777;80;21404;-67
2022/08/16 02:22:06;;;;;;;6.45;4.25;;;;;;;22.03;73.63;99524.38;1787273;80;21073;-67
2022/08/16 02:24:38;;;;;;;7.40;3.83;;;;;;;22.08;73.03;99519.30;1780377;80;21047;-67
2022/08/16 02:27:10;;;;;;;7.92;4.28;;;;;;;22.11;72.37;99512.60;1795721;80;21003;-67
2022/08/16 02:29:40;;;;;;;8.95;4.08;;;;;;;22.17;71.29;99520.35;1780923;79;21013;-67
2022/08/16 02:32:11;;;;;;;5.53;4.03;;;;;;;22.21;70.15;99514.45;1788651;79;21346;-66
2022/08/16 02:34:43;;;;;;;10.05;4.60;;;;;;;22.26;68.94;99510.20;1804739;79;21102;-67
2022/08/16 02:37:13;;;;;;;6.30;4.12;;;;;;;22.28;68.90;99496.78;1797882;79;21054;-68
2022/08/16 02:39:44;;;;;;;5.97;3.77;;;;;;;22.29;69.16;99491.47;1808300;79;20999;-68
2022/08/16 02:42:18;;;;;;;6.75;3.80;;;;;;;22.29;69.62;99483.66;1820871;79;21415;-66
2022/08/16 02:44:47;;;;;;;8.13;4.25;;;;;;;22.26;69.01;99482.86;1812056;79;21078;-68
2022/08/16 02:47:17;;;;;;;9.80;4.58;;;;;;;22.27;68.70;99490.94;1812480;79;21743;-66
2022/08/16 02:49:48;;;;;;;10.32;4.47;;;;;;;22.26;68.97;99482.86;1811029;79;20999;-69
2022/08/16 02:52:22;;;;;;;6.25;4.15;;;;;;;22.26;68.28;99484.26;1755995;80;21074;-66
2022/08/16 02:54:55;;;;;;;10.25;4.15;;;;;;;22.26;68.67;99485.09;1797666;80;20982;-67
2022/08/16 02:57:25;;;;;;;8.08;4.12;;;;;;;22.29;68.54;99487.28;1798327;78;21441;-68
2022/08/16 02:59:57;;;;;;;7.50;4.00;;;;;;;22.27;68.90;99483.95;1798274;79;21660;-67
2022/08/16 03:02:28;;;;;;;8.55;5.03;;;;;;;22.24;69.23;99487.34;1784728;79;21037;-67
2022/08/16 03:04:59;;;;;;;9.13;4.37;;;;;;;22.20;69.12;99479.30;1796354;79;20998;-67
2022/08/16 03:07:30;;;;;;;6.97;4.03;;;;;;;22.15;69.29;99483.55;1792592;79;21046;-66
2022/08/16 03:10:03;;;;;;;8.43;4.20;;;;;;;22.10;69.39;99472.41;1792030;79;21026;-67
2022/08/16 03:12:33;;;;;;;7.40;3.92;;;;;;;22.08;68.06;99491.41;1799962;79;21061;-67
2022/08/16 03:15:07;;;;;;;6.42;4.20;;;;;;;22.12;67.69;99485.53;1801122;79;20990;-67
2022/08/16 03:17:36;;;;;;;9.10;4.35;;;;;;;22.17;67.19;99479.89;1784240;78;21100;-68
2022/08/16 03:20:11;;;;;;;7.37;4.10;;;;;;;22.22;66.62;99467.28;1795955;79;21038;-68
2022/08/16 03:22:41;;;;;;;9.68;4.72;;;;;;;22.25;66.45;99479.23;1790755;79;21019;-69
2022/08/16 03:25:14;;;;;;;9.95;4.62;;;;;;;22.27;66.08;99473.36;1800677;79;21057;-66
2022/08/16 03:27:46;;;;;;;12.45;4.87;;;;;;;22.29;65.78;99480.30;1802360;79;21030;-70
2022/08/16 03:30:22;;;;;;;7.90;3.75;;;;;;;22.33;65.65;99479.98;1811862;78;21026;-67
2022/08/16 03:32:53;;;;;;;11.15;4.33;;;;;;;22.37;65.82;99476.02;1774699;78;21111;-69
2022/08/16 03:35:28;;;;;;;8.05;4.62;;;;;;;22.39;65.20;99477.39;1774457;81;21094;-68
2022/08/16 03:38:00;;;;;;;10.23;4.47;;;;;;;22.41;65.00;99480.71;1787858;79;21031;-69
2022/08/16 03:40:34;;;;;;;7.37;4.33;;;;;;;22.43;64.54;99477.63;1788194;79;20988;-67
2022/08/16 03:43:08;;;;;;;7.20;4.40;;;;;;;22.46;64.69;99473.67;1787760;79;21235;-68
2022/08/16 03:45:40;;;;;;;11.20;4.80;;;;;;;22.49;64.27;99482.58;1785810;79;21016;-69
2022/08/16 03:48:09;;;;;;;9.25;4.20;;;;;;;22.50;64.42;99480.05;1787557;79;21047;-68
2022/08/16 03:50:41;;;;;;;14.00;4.30;;;;;;;22.51;64.26;99478.92;1787275;79;20995;-69
2022/08/16 03:53:14;;;;;;;9.68;4.67;;;;;;;22.55;63.99;99496.73;1785199;79;21074;-68
2022/08/16 03:55:43;;;;;;;7.37;4.58;;;;;;;22.55;63.72;99489.19;1788410;79;21003;-68
2022/08/16 03:58:15;;;;;;;8.15;4.67;;;;;;;22.57;63.22;99487.50;1787810;79;21003;-67
2022/08/16 04:00:45;;;;;;;7.15;4.50;;;;;;;22.60;63.58;99493.88;1788714;79;21007;-69
2022/08/16 04:03:16;;;;;;;9.98;4.42;;;;;;;22.60;63.12;99491.09;1786500;79;21035;-67
2022/08/16 04:05:49;;;;;;;7.30;4.10;;;;;;;22.61;63.38;99492.19;1788630;79;21420;-67
2022/08/16 04:08:22;;;;;;;5.62;4.15;;;;;;;22.62;63.28;99496.64;1788133;79;21023;-68
2022/08/16 04:10:56;;;;;;;5.17;3.95;;;;;;;22.63;63.43;99494.67;1787266;79;21447;-69
2022/08/16 04:13:29;;;;;;;7.08;4.35;;;;;;;22.64;63.57;99493.55;1788069;79;21067;-68
2022/08/16 04:16:02;;;;;;;8.20;4.60;;;;;;;22.64;63.86;99496.34;1784443;79;21023;-68
2022/08/16 04:18:36;;;;;;;8.43;4.40;;;;;;;22.65;63.74;99499.39;1775966;79;21003;-68
2022/08/16 04:21:05;;;;;;;10.55;4.78;;;;;;;22.64;63.86;99497.17;1787144;80;21015;-68
2022/08/16 04:23:36;;;;;;;6.80;4.45;;;;;;;22.63;63.95;99489.09;1787635;79;21031;-68
2022/08/16 04:26:07;;;;;;;9.48;4.60;;;;;;;22.64;64.05;99487.96;1788033;79;21089;-68
2022/08/16 04:28:42;;;;;;;9.38;4.72;;;;;;;22.65;64.12;99493.25;1786826;79;21063;-68
2022/08/16 04:31:14;;;;;;;11.03;4.85;;;;;;;22.67;64.12;99483.17;1785234;79;21003;-69
2022/08/16 04:33:44;;;;;;;7.85;4.40;;;;;;;22.66;63.86;99480.95;1790453;80;20980;-69
2022/08/16 04:36:15;;;;;;;7.60;4.35;;;;;;;22.68;64.06;99476.45;1782923;80;21424;-69
2022/08/16 04:38:45;;;;;;;7.97;4.50;;;;;;;22.69;63.83;99479.52;1789996;80;21082;-66
2022/08/16 04:41:17;;;;;;;9.63;4.65;;;;;;;22.72;64.09;99483.10;1783163;80;21012;-67
2022/08/16 04:43:50;;;;;;;8.30;4.70;;;;;;;22.76;64.18;99477.22;1796166;80;21156;-69
2022/08/16 04:46:21;;;;;;;7.10;4.85;;;;;;;22.80;64.26;99485.82;1796364;80;21038;-69
2022/08/16 04:48:53;;;;;;;7.33;4.70;;;;;;;22.81;64.21;99491.14;1786864;80;21016;-68
2022/08/16 04:51:24;;;;;;;8.25;4.67;;;;;;;22.83;64.10;99486.65;1784725;80;21019;-68
2022/08/16 04:53:54;;;;;;;9.88;4.90;;;;;;;22.82;64.33;99491.41;1783219;80;21003;-70
2022/08/16 04:56:23;;;;;;;7.03;4.37;;;;;;;22.81;64.66;99499.52;1792136;79;21460;-69
2022/08/16 04:58:55;;;;;;;6.22;4.83;;;;;;;22.83;64.80;99508.99;1790399;79;21040;-67
2022/08/16 05:01:28;;;;;;;10.58;5.53;;;;;;;22.84;64.85;99514.84;1782096;80;21436;-68
2022/08/16 05:03:59;;;;;;;9.13;5.40;;;;;;;22.83;64.72;99508.99;1787187;80;20984;-68
2022/08/16 05:06:32;;;;;;;7.58;4.70;;;;;;;22.83;64.86;99514.58;1772872;80;20970;-69
2022/08/16 05:09:03;;;;;;;5.55;4.00;;;;;;;22.84;64.92;99513.45;1788755;80;21056;-69
2022/08/16 05:11:32;;;;;;;8.83;4.80;;;;;;;22.86;65.08;99525.98;1772018;80;21064;-71
2022/08/16 05:14:02;;;;;;;10.82;5.08;;;;;;;22.87;65.06;99519.27;1784208;80;21474;-68
2022/08/16 05:16:34;;;;;;;7.60;4.80;;;;;;;22.91;65.02;99521.73;1774622;80;21067;-70
2022/08/16 05:19:05;;;;;;;11.78;5.40;;;;;;;22.96;65.00;99517.46;1782737;80;21031;-68
2022/08/16 05:21:39;;;;;;;10.23;5.30;;;;;;;23.01;64.67;99524.38;1790305;80;21035;-69
2022/08/16 05:24:11;;;;;;;8.53;4.75;;;;;;;23.03;64.28;99522.11;1790598;80;21038;-69
2022/08/16 05:26:40;;;;;;;7.47;4.37;;;;;;;23.06;64.10;99523.47;1789020;80;21075;-68
2022/08/16 05:29:13;;;;;;;8.40;4.83;;;;;;;23.12;64.13;99520.87;1787552;80;21003;-70
2022/08/16 05:31:45;;;;;;;9.88;5.12;;;;;;;23.19;63.87;99529.70;1788173;78;21073;-69
2022/08/16 05:34:20;;;;;;;11.10;5.10;;;;;;;23.24;63.61;99532.98;1804417;77;21499;-68
2022/08/16 05:36:49;;;;;;;8.68;4.80;;;;;;;23.28;63.68;99532.08;1802194;79;21005;-68
2022/08/16 05:39:20;;;;;;;12.73;4.70;;;;;;;23.33;63.28;99538.98;1812058;79;21014;-68
2022/08/16 05:41:50;;;;;;;11.18;4.75;;;;;;;23.40;63.00;99545.59;1811753;79;21066;-68
2022/08/16 05:44:22;;;;;;;8.95;4.33;;;;;;;23.48;62.85;99549.14;1814385;79;21096;-71
2022/08/16 05:46:58;;;;;;;7.95;4.75;;;;;;;23.53;62.37;99546.83;1810634;79;21009;-68
2022/08/16 05:49:31;;;;;;;6.10;4.55;;;;;;;23.55;62.17;99551.58;1816349;77;21054;-69
2022/08/16 05:52:03;;;;;;;8.18;4.53;;;;;;;23.58;62.00;99547.60;1816379;79;21029;-69
2022/08/16 05:54:35;;;;;;;8.00;4.95;;;;;;;23.58;61.68;99553.20;1806381;77;21003;-69
2022/08/16 05:57:07;;;;;;;12.10;6.53;;;;;;;23.61;61.78;99544.77;1807582;79;21112;-68
2022/08/16 05:59:39;;;;;;;11.40;5.30;;;;;;;23.62;61.69;99544.46;1808003;78;21077;-68
2022/08/16 06:02:09;;;;;;;8.05;5.03;;;;;;;23.65;61.70;99548.05;1808483;79;21005;-70
2022/08/16 06:04:39;;;;;;;10.20;4.92;;;;;;;23.65;61.66;99545.81;1808480;79;21076;-68
2022/08/16 06:07:13;;;;;;;7.58;4.72;;;;;;;23.66;61.43;99551.11;1802052;78;21114;-68
2022/08/16 06:09:46;;;;;;;10.20;4.92;;;;;;;23.67;61.26;99549.97;1806011;78;21446;-69
2022/08/16 06:12:21;;;;;;;9.73;4.60;;;;;;;23.67;60.89;99547.17;1810079;78;21076;-69
2022/08/16 06:14:57;;;;;;;9.95;4.62;;;;;;;23.68;61.14;99553.59;1807896;77;21005;-69
2022/08/16 06:17:25;;;;;;;7.53;4.37;;;;;;;23.70;60.81;99549.93;1782010;79;20999;-71
2022/08/16 06:19:57;;;;;;;9.98;4.95;;;;;;;23.71;60.31;99553.82;1797149;78;21003;-69
2022/08/16 06:22:27;;;;;;;7.80;4.53;;;;;;;23.69;60.10;99556.09;1789732;79;21085;-70
2022/08/16 06:24:58;;;;;;;11.93;5.03;;;;;;;23.68;60.39;99556.39;1789888;79;21474;-69
2022/08/16 06:27:30;;;;;;;22.22;7.65;;;;;;;23.66;61.82;99567.89;1791004;79;21395;-69
2022/08/16 06:30:03;;;;;;;11.22;6.15;;;;;;;23.57;67.08;99565.52;1805288;78;21021;-66
2022/08/16 06:32:36;;;;;;;31.37;14.73;;;;;;;23.33;69.60;99573.94;1810356;79;21080;-67
2022/08/16 06:35:09;;;;;;;21.65;7.70;;;;;;;23.05;72.69;99570.14;1799397;79;21043;-68
2022/08/16 06:37:40;;;;;;;13.43;6.80;;;;;;;22.75;75.04;99574.67;1812289;78;21054;-65
2022/08/16 06:40:13;;;;;;;20.02;8.05;;;;;;;22.42;76.84;99589.02;1800383;79;21061;-68
2022/08/16 06:42:46;;;;;;;16.32;8.53;;;;;;;22.21;79.06;99606.53;1798270;79;20981;-65
2022/08/16 06:45:28;;;;;;;18.12;8.68;;;;;;;22.06;81.79;99615.02;1774016;79;21072;-66
2022/08/16 06:48:00;;;;;;;17.07;9.03;;;;;;;22.01;83.46;99620.61;1796899;79;21027;-68
2022/08/16 06:50:31;;;;;;;14.43;7.95;;;;;;;21.97;84.71;99624.55;1821786;79;21066;-69
2022/08/16 06:53:04;;;;;;;18.67;8.63;;;;;;;21.93;86.19;99631.00;1820532;78;21006;-65
2022/08/16 06:55:36;;;;;;;15.78;8.63;;;;;;;21.86;87.34;99639.70;1808970;79;21035;-67
2022/08/16 06:58:08;;;;;;;18.25;8.95;;;;;;;21.84;88.43;99648.92;1805784;79;21018;-67
2022/08/16 07:00:41;;;;;;;15.85;8.68;;;;;;;21.87;89.39;99646.11;1804893;79;21101;-68
2022/08/16 07:03:12;;;;;;;14.20;7.80;;;;;;;21.89;90.17;99653.62;1803537;79;20972;-68
2022/08/16 07:05:45;;;;;;;13.08;7.37;;;;;;;21.91;89.66;99668.11;1797224;79;21054;-68
2022/08/16 07:08:16;;;;;;;15.85;8.28;;;;;;;21.88;85.85;99658.37;1816162;79;20983;-69
2022/08/16 07:10:48;;;;;;;13.72;7.72;;;;;;;21.89;84.24;99673.98;1805584;79;20999;-70
2022/08/16 07:13:19;;;;;;;15.08;8.30;;;;;;;21.87;81.61;99656.70;1804529;79;21001;-69
2022/08/16 07:15:52;;;;;;;11.83;7.85;;;;;;;21.87;80.72;99671.21;1793742;79;21560;-68
2022/08/16 07:18:24;;;;;;;18.98;8.93;;;;;;;21.86;79.83;99673.73;1806245;78;21050;-68
2022/08/16 07:20:57;;;;;;;15.38;8.50;;;;;;;21.83;80.16;99687.13;1808658;79;21098;-69
2022/08/16 07:23:29;;;;;;;14.63;8.48;;;;;;;21.81;79.70;99682.41;1814427;79;21080;-68
2022/08/16 07:26:00;;;;;;;14.95;8.08;;;;;;;21.80;80.56;99689.10;1796356;80;21029;-67
2022/08/16 07:28:30;;;;;;;18.80;10.55;;;;;;;21.79;80.73;99690.22;1797834;80;21044;-66
2022/08/16 07:31:01;;;;;;;19.52;9.88;;;;;;;21.75;82.20;99680.77;1797842;80;21013;-67
2022/08/16 07:33:34;;;;;;;16.87;10.28;;;;;;;21.73;82.44;99682.18;1797927;80;21045;-67
2022/08/16 07:36:06;;;;;;;17.00;9.80;;;;;;;21.72;84.09;99692.50;1793635;79;21069;-68
2022/08/16 07:38:40;;;;;;;20.08;9.65;;;;;;;21.71;85.53;99688.61;1792624;80;20996;-68
2022/08/16 07:41:09;;;;;;;20.30;10.20;;;;;;;21.72;86.92;99677.17;1785462;80;21102;-69
2022/08/16 07:43:41;;;;;;;17.23;8.90;;;;;;;21.74;86.92;99679.66;1797620;80;21057;-69
2022/08/16 07:46:12;;;;;;;19.75;8.35;;;;;;;21.77;86.93;99664.58;1790863;79;21092;-70
2022/08/16 07:48:45;;;;;;;19.52;8.83;;;;;;;21.81;85.91;99676.83;1794717;80;21013;-72
2022/08/16 07:51:16;;;;;;;16.97;8.95;;;;;;;21.86;86.24;99687.67;1795961;79;21033;-72
2022/08/16 07:53:50;;;;;;;16.15;9.23;;;;;;;21.92;87.04;99685.12;1797498;79;21429;-70
2022/08/16 07:56:19;;;;;;;20.57;8.90;;;;;;;21.94;86.99;99687.89;1772483;80;21019;-70
2022/08/16 07:58:48;;;;;;;21.02;9.38;;;;;;;21.98;87.06;99688.14;1811433;79;21430;-70
2022/08/16 08:01:19;;;;;;;18.75;9.33;;;;;;;22.03;87.56;99699.30;1805785;78;21022;-75
2022/08/16 08:03:53;;;;;;;22.82;12.93;;;;;;;22.03;88.26;99684.78;1795722;79;21062;-69
2022/08/16 08:06:29;;;;;;;26.23;14.10;;;;;;;21.97;89.26;99678.94;1812087;79;21030;-67
2022/08/16 08:09:02;;;;;;;29.57;17.73;;;;;;;21.84;90.22;99680.43;1808604;79;21067;-66
2022/08/16 08:11:31;;;;;;;29.82;16.90;;;;;;;21.73;91.75;99670.47;1778774;79;21086;-66
2022/08/16 08:14:04;;;;;;;30.92;15.38;;;;;;;21.65;92.91;99689.20;1812066;78;21005;-66
2022/08/16 08:16:36;;;;;;;28.25;15.88;;;;;;;21.60;93.35;99677.25;1802574;78;21066;-67
2022/08/16 08:19:11;;;;;;;22.60;13.90;;;;;;;21.53;93.58;99676.73;1796986;79;21427;-66
2022/08/16 08:21:42;;;;;;;18.55;12.03;;;;;;;21.47;93.43;99674.53;1807586;78;21065;-66
2022/08/16 08:24:14;;;;;;;20.30;12.65;;;;;;;21.42;93.30;99681.50;1809042;78;21062;-66
2022/08/16 08:26:45;;;;;;;20.75;12.35;;;;;;;21.35;93.32;99682.38;1784915;79;21133;-66
2022/08/16 08:29:17;;;;;;;18.80;12.20;;;;;;;21.32;93.66;99687.13;1797371;79;21030;-66
2022/08/16 08:31:50;;;;;;;20.30;12.18;;;;;;;21.27;93.52;99688.55;1807521;79;20974;-67
2022/08/16 08:34:20;;;;;;;20.17;11.38;;;;;;;21.23;93.82;99683.27;1773051;79;22029;-67
2022/08/16 08:36:50;;;;;;;20.17;12.63;;;;;;;21.20;94.32;99686.03;1745655;80;21055;-68
2022/08/16 08:39:41;;;;;;;20.65;12.37;;;;;;;21.16;94.92;99687.16;1758875;79;21001;-67
2022/08/16 08:42:09;;;;;;;19.80;11.63;;;;;;;21.14;95.29;99685.78;1762271;81;21498;-71
2022/08/16 08:44:39;;;;;;;16.65;11.75;;;;;;;21.10;95.04;99679.95;1773948;81;21067;-66
2022/08/16 08:47:12;;;;;;;17.35;11.18;;;;;;;21.09;95.12;99695.55;1773898;81;21008;-66
2022/08/16 08:49:44;;;;;;;14.95;10.00;;;;;;;21.06;95.69;99688.59;1787644;79;21292;-66
2022/08/16 08:52:16;;;;;;;13.78;9.88;;;;;;;21.03;95.19;99694.73;1786083;79;21051;-68
2022/08/16 08:54:47;;;;;;;14.00;9.23;;;;;;;20.99;95.52;99685.84;1784774;79;21008;-67
2022/08/16 08:57:19;;;;;;;12.68;8.85;;;;;;;20.98;95.92;99687.79;1788539;79;20983;-66
2022/08/16 09:00:11;;;;;;;13.70;8.45;;;;;;;20.94;95.66;99688.08;1707517;84;21101;-69
2022/08/16 09:02:43;;;;;;;10.28;7.28;;;;;;;20.91;96.03;99683.64;1694482;84;21079;-67
2022/08/16 09:05:14;;;;;;;10.90;7.17;;;;;;;20.86;95.28;99688.66;1741315;80;21065;-67
2022/08/16 09:07:46;;;;;;;11.80;7.67;;;;;;;20.84;95.61;99708.44;1772169;80;21059;-67
2022/08/16 09:10:17;;;;;;;8.33;5.97;;;;;;;20.81;95.46;99697.03;1781908;79;21068;-68
2022/08/16 09:12:49;;;;;;;11.00;6.20;;;;;;;20.76;94.41;99698.40;1783339;80;21049;-69
2022/08/16 09:15:21;;;;;;;12.40;6.42;;;;;;;20.76;94.34;99710.93;1769085;80;21501;-68
2022/08/16 09:17:54;;;;;;;9.35;7.30;;;;;;;20.79;95.10;99713.16;1773976;81;21035;-69
2022/08/16 09:20:28;;;;;;;14.03;9.18;;;;;;;20.82;95.15;99719.02;1773136;81;21036;-69
2022/08/16 09:22:58;;;;;;;14.73;9.40;;;;;;;20.86;95.59;99724.86;1774006;81;21055;-69
2022/08/16 09:25:30;;;;;;;13.53;9.78;;;;;;;20.91;95.62;99722.62;1773724;81;21542;-70
2022/08/16 09:28:02;;;;;;;15.40;8.73;;;;;;;20.91;94.75;99727.64;1773884;80;21095;-70
2022/08/16 09:30:36;;;;;;;11.40;7.53;;;;;;;20.93;95.03;99726.80;1776781;79;21059;-69
2022/08/16 09:33:08;;;;;;;10.15;7.92;;;;;;;20.93;94.66;99737.94;1782476;79;21510;-68
2022/08/16 09:35:38;;;;;;;12.95;8.58;;;;;;;20.94;94.72;99722.89;1753855;81;21495;-70
2022/08/16 09:38:11;;;;;;;13.78;7.85;;;;;;;20.99;94.84;99735.97;1784342;80;21077;-67
2022/08/16 09:40:43;;;;;;;11.33;8.58;;;;;;;21.05;94.89;99743.20;1778309;80;21079;-70
2022/08/16 09:43:16;;;;;;;12.10;7.97;;;;;;;21.14;95.52;99734.53;1782916;80;21042;-68
2022/08/16 09:45:47;;;;;;;12.58;8.13;;;;;;;21.26;95.31;99736.47;1780330;80;21041;-70
2022/08/16 09:48:17;;;;;;;14.78;8.18;;;;;;;21.36;95.37;99734.20;1782427;80;21087;-70
2022/08/16 09:50:48;;;;;;;14.18;8.43;;;;;;;21.45;95.16;99735.28;1771116;79;21132;-69
2022/08/16 09:53:21;;;;;;;11.68;8.38;;;;;;;21.53;93.39;99731.92;1757859;79;21125;-69
2022/08/16 09:55:53;;;;;;;10.78;8.15;;;;;;;21.57;92.87;99738.59;1775314;79;21052;-70
2022/08/16 09:58:26;;;;;;;11.22;8.25;;;;;;;21.62;93.28;99730.20;1755009;80;21045;-69
2022/08/16 10:00:58;;;;;;;13.68;8.50;;;;;;;21.69;93.97;99740.48;1751394;80;21066;-72
2022/08/16 10:03:29;;;;;;;10.98;7.90;;;;;;;21.74;93.59;99731.26;1759210;81;21152;-70
2022/08/16 10:05:59;;;;;;;10.13;7.08;;;;;;;21.77;92.47;99737.09;1759068;81;21181;-71
2022/08/16 10:08:29;;;;;;;14.13;8.50;;;;;;;21.79;90.71;99730.66;1764369;81;21005;-69
2022/08/16 10:13:50;;;;;;;16.62;8.45;;;;;;;21.75;90.07;99722.60;1773891;81;21026;-71
2022/08/16 10:16:20;;;;;;;13.75;9.43;;;;;;;;;;1763509;81;21093;-71
2022/08/16 10:18:54;;;;;;;11.80;8.83;;;;;;;21.86;90.76;99721.14;1761339;81;21444;-71
2022/08/16 10:21:33;;;;;;;12.55;9.28;;;;;;;21.93;90.93;99713.28;1764666;81;21500;-71
2022/08/16 10:24:03;;;;;;;11.55;8.58;;;;;;;21.98;90.56;99711.86;1767207;80;21041;-72
2022/08/16 10:26:33;;;;;;;15.48;9.68;;;;;;;22.07;90.71;99723.53;1765227;81;21093;-71
2022/08/16 10:29:04;;;;;;;11.15;8.23;;;;;;;22.18;90.30;99717.91;1775132;80;21112;-70
2022/08/16 10:31:33;;;;;;;13.45;8.43;;;;;;;22.23;89.00;99719.27;1765870;81;21061;-69
2022/08/16 10:34:04;;;;;;;14.53;9.15;;;;;;;22.27;88.21;99726.77;1779835;79;21030;-72
2022/08/16 10:36:35;;;;;;;15.40;8.40;;;;;;;22.29;87.38;99722.28;1808183;79;21003;-70
2022/08/16 10:39:07;;;;;;;11.80;8.20;;;;;;;22.30;87.13;99726.74;1812883;78;21013;-71
2022/08/16 10:41:36;;;;;;;11.28;8.40;;;;;;;22.27;86.47;99737.09;1812196;79;21011;-70
2022/08/16 10:44:06;;;;;;;12.85;8.10;;;;;;;22.25;87.51;99742.13;1801630;79;21448;-67
2022/08/16 10:46:37;;;;;;;10.50;7.90;;;;;;;22.22;87.69;99751.92;1813437;78;21038;-70
2022/08/16 10:49:10;;;;;;;10.53;7.90;;;;;;;22.23;88.67;99756.38;1801110;79;21432;-70
2022/08/16 10:51:39;;;;;;;13.53;7.62;;;;;;;22.24;88.50;99756.66;1813925;78;21038;-65
2022/08/16 10:54:10;;;;;;;13.50;9.65;;;;;;;22.18;86.85;99768.14;1798945;78;21062;-68
2022/08/16 10:56:42;;;;;;;10.30;7.97;;;;;;;22.16;88.30;99773.17;1807216;79;21039;-69
2022/08/16 10:59:13;;;;;;;10.82;7.50;;;;;;;22.15;87.92;99773.73;1787020;78;21097;-67
2022/08/16 11:01:44;;;;;;;12.33;8.90;;;;;;;22.16;88.63;99774.02;1818269;79;21478;-68
2022/08/16 11:04:15;;;;;;;10.30;8.08;;;;;;;22.20;89.68;99783.47;1807273;78;21072;-68
2022/08/16 11:06:47;;;;;;;9.88;7.55;;;;;;;22.27;89.40;99781.19;1800044;79;20979;-68
2022/08/16 11:09:18;;;;;;;13.20;8.35;;;;;;;22.32;88.62;99777.53;1807419;79;21030;-66
2022/08/16 11:11:51;;;;;;;12.70;8.13;;;;;;;22.39;88.89;99783.05;1797575;79;21003;-68
2022/08/16 11:14:23;;;;;;;11.95;7.83;;;;;;;22.52;89.35;99773.17;1806483;79;21042;-71
2022/08/16 11:16:52;;;;;;;14.35;8.25;;;;;;;22.64;88.33;99770.84;1798027;78;21054;-68
2022/08/16 11:19:24;;;;;;;12.13;8.25;;;;;;;22.73;87.30;99779.42;1805796;79;21045;-70
2022/08/16 11:21:58;;;;;;;15.68;8.73;;;;;;;22.84;86.71;99776.03;1814434;78;21034;-74
2022/08/16 11:24:29;;;;;;;14.05;8.33;;;;;;;22.92;86.16;99772.59;1817860;79;21090;-68
2022/08/16 11:27:01;;;;;;;13.05;8.43;;;;;;;22.99;84.84;99773.91;1782210;79;21054;-71
2022/08/16 11:29:34;;;;;;;14.60;8.20;;;;;;;23.05;84.08;99778.89;1788210;80;21441;-72
2022/08/16 11:32:04;;;;;;;15.55;8.35;;;;;;;23.07;81.35;99778.02;1767863;80;21109;-72
2022/08/16 11:34:35;;;;;;;11.65;8.38;;;;;;;23.05;79.63;99779.72;1777230;80;21080;-71
2022/08/16 11:37:06;;;;;;;12.98;8.75;;;;;;;23.05;80.43;99778.33;1760256;80;21072;-69
2022/08/16 11:39:37;;;;;;;14.73;9.08;;;;;;;23.05;80.21;99772.73;1756947;81;21062;-70
2022/08/16 11:42:07;;;;;;;14.33;8.88;;;;;;;23.06;80.16;99771.60;1788819;79;21018;-70
2022/08/16 11:44:38;;;;;;;11.35;7.72;;;;;;;23.09;80.73;99768.22;1786485;80;21124;-72
2022/08/16 11:47:10;;;;;;;13.60;8.20;;;;;;;23.14;80.81;99773.48;1787534;80;21008;-71
2022/08/16 11:49:39;;;;;;;16.45;8.83;;;;;;;23.19;80.85;99777.63;1783841;80;21018;-71
2022/08/16 11:52:07;;;;;;;11.50;7.87;;;;;;;23.25;80.83;99782.02;1789938;80;21507;-72
2022/08/16 11:54:37;;;;;;;11.22;8.50;;;;;;;23.29;80.10;99785.89;1797489;80;21491;-71